Drasco, Texas
Current Conditions -  °F | °C
As of 3:16 AM on Friday 19 Dec 2014 (Local Time) from KDYS Reporting Station
Overcast Overcast  
Wind Chill: 37°   Ceiling: 800
Heat Index: 43°   Visibility: 10mi
Dew Point: 37°   Wind: 9mph
Humidity: 81%   Direction: 30°NNE
Pressure: 30.13"   Gusts: NA
Location:  31.975°N, 99.9034°W
Report Text: KDYS 190916Z AUTO 03008KT 10SM OVC008 06/03 A3013 RMK AO2
Loading
Personal Weather Stations






























Interactive Weather Map New forecast layout! Learn more

10-Day Weather Forecast

Advertisements
Track Severe Weather on mobile